Time;durP1;ratioP1;P1;durP2;ratioP2;P2;SDS_P1;SDS_P2;PMS_P1;PMS_P2;Temp;Humidity;BMP_temperature;BMP_pressure;BME280_temperature;BME280_humidity;BME280_pressure;Samples;Min_cycle;Max_cycle;Signal;HPM_P1;HPM_P2
2022/04/19 00:01:18;;;;;;;15.33;7.90;;;;;;;;;;5104378;28;20525;-71
2022/04/19 00:03:43;;;;;;;17.53;10.03;;;;;;;;;;5105220;28;20056;-71
2022/04/19 00:06:09;;;;;;;19.30;8.70;;;;;;;;;;5101718;28;20047;-71
2022/04/19 00:08:35;;;;;;;17.87;8.10;;;;;;;;;;5098164;28;20066;-71
2022/04/19 00:11:01;;;;;;;13.80;7.23;;;;;;;;;;5104517;28;20062;-69
2022/04/19 00:13:28;;;;;;;12.97;7.20;;;;;;;;;;5100595;28;20024;-71
2022/04/19 00:15:55;;;;;;;15.00;6.90;;;;;;;;;;5103415;28;20024;-71
2022/04/19 00:18:21;;;;;;;12.57;7.43;;;;;;;;;;5100029;28;20024;-70
2022/04/19 00:20:48;;;;;;;13.63;7.90;;;;;;;;;;5098297;28;20027;-70
2022/04/19 00:23:15;;;;;;;12.90;7.23;;;;;;;;;;5103582;28;20020;-70
2022/04/19 00:25:46;;;;;;;12.83;7.33;;;;;;;;;;5102272;28;20216;-70
2022/04/19 00:28:12;;;;;;;14.53;7.80;;;;;;;;;;5102659;28;20027;-71
2022/04/19 00:30:38;;;;;;;13.67;7.83;;;;;;;;;;5104429;28;20028;-71
2022/04/19 00:33:05;;;;;;;14.20;7.30;;;;;;;;;;5105715;28;20034;-72
2022/04/19 00:35:30;;;;;;;9.93;7.07;;;;;;;;;;5099314;28;20488;-71
2022/04/19 00:37:56;;;;;;;17.63;7.63;;;;;;;;;;5097947;28;20027;-71
2022/04/19 00:40:21;;;;;;;11.97;7.17;;;;;;;;;;5102292;28;20347;-71
2022/04/19 00:42:50;;;;;;;14.90;7.27;;;;;;;;;;5099641;28;20051;-72
2022/04/19 00:45:15;;;;;;;15.80;7.83;;;;;;;;;;5102604;28;20027;-70
2022/04/19 00:47:41;;;;;;;15.17;7.67;;;;;;;;;;5099067;28;20117;-72
2022/04/19 00:50:07;;;;;;;12.83;7.30;;;;;;;;;;5102163;28;20035;-70
2022/04/19 00:52:37;;;;;;;14.87;7.23;;;;;;;;;;5099488;28;20024;-71
2022/04/19 00:55:04;;;;;;;14.70;7.80;;;;;;;;;;5086066;28;20049;-71
2022/04/19 00:57:29;;;;;;;13.07;7.27;;;;;;;;;;5098921;28;20479;-71
2022/04/19 00:59:57;;;;;;;16.10;7.37;;;;;;;;;;5103620;28;20053;-71
2022/04/19 01:02:23;;;;;;;13.00;7.63;;;;;;;;;;5098770;28;20032;-71
2022/04/19 01:04:49;;;;;;;19.27;8.47;;;;;;;;;;5103696;28;20062;-71
2022/04/19 01:07:18;;;;;;;12.53;7.33;;;;;;;;;;5098806;28;20056;-71
2022/04/19 01:09:45;;;;;;;17.33;8.03;;;;;;;;;;5104044;28;20024;-70
2022/04/19 01:14:57;;;;;;;15.33;7.50;;;;;;;;;;5098602;28;20552;-70
2022/04/19 01:17:26;;;;;;;14.83;7.80;;;;;;;;;;5105081;28;20028;-71
2022/04/19 01:19:51;;;;;;;16.53;7.40;;;;;;;;;;5103631;28;20039;-71
2022/04/19 01:22:17;;;;;;;19.00;8.20;;;;;;;;;;5093681;28;20088;-71
2022/04/19 01:24:43;;;;;;;15.53;7.57;;;;;;;;;;5097689;28;20212;-71
2022/04/19 01:27:09;;;;;;;16.17;8.13;;;;;;;;;;5103833;28;20114;-71
2022/04/19 01:29:35;;;;;;;14.20;7.30;;;;;;;;;;5096493;28;20031;-71
2022/04/19 01:32:04;;;;;;;19.47;8.70;;;;;;;;;;5097629;28;20024;-70
2022/04/19 01:34:31;;;;;;;18.07;8.87;;;;;;;;;;5101849;28;20119;-70
2022/04/19 01:36:57;;;;;;;12.43;7.87;;;;;;;;;;5097810;28;20054;-71
2022/04/19 01:42:07;;;;;;;19.27;9.33;;;;;;;;;;5101799;28;20075;-71
2022/04/19 01:44:33;;;;;;;15.80;7.70;;;;;;;;;;5099396;28;20036;-71
2022/04/19 01:47:07;;;;;;;15.83;8.07;;;;;;;;;;5101644;28;20027;-71
2022/04/19 01:49:34;;;;;;;21.53;8.63;;;;;;;;;;5098408;28;20435;-72
2022/04/19 01:52:01;;;;;;;22.80;8.83;;;;;;;;;;5100717;28;20050;-72
2022/04/19 01:54:29;;;;;;;18.13;8.43;;;;;;;;;;5098108;28;20135;-71
2022/04/19 01:56:55;;;;;;;19.90;8.40;;;;;;;;;;5100960;28;20016;-72
2022/04/19 01:59:21;;;;;;;15.93;7.93;;;;;;;;;;5099459;28;20028;-72
2022/04/19 02:01:48;;;;;;;17.70;7.90;;;;;;;;;;5096051;28;20035;-72
2022/04/19 02:04:15;;;;;;;16.50;7.97;;;;;;;;;;5100370;28;20046;-72
2022/04/19 02:06:41;;;;;;;14.87;7.33;;;;;;;;;;5081505;28;20178;-72
2022/04/19 02:09:07;;;;;;;16.50;7.73;;;;;;;;;;5096113;28;20051;-72
2022/04/19 02:11:32;;;;;;;18.90;8.83;;;;;;;;;;5095826;28;20031;-72
2022/04/19 02:13:59;;;;;;;12.73;7.10;;;;;;;;;;5100898;28;20024;-72
2022/04/19 02:16:24;;;;;;;17.57;8.33;;;;;;;;;;5098144;28;20022;-72
2022/04/19 02:18:50;;;;;;;18.17;7.93;;;;;;;;;;5099511;28;20023;-72
2022/04/19 02:21:15;;;;;;;15.93;7.70;;;;;;;;;;5098146;28;20040;-72
2022/04/19 02:23:41;;;;;;;19.93;9.03;;;;;;;;;;5099774;28;20035;-72
2022/04/19 02:26:07;;;;;;;18.57;10.03;;;;;;;;;;5098664;28;20032;-72
2022/04/19 02:28:34;;;;;;;18.70;8.03;;;;;;;;;;5098970;28;20146;-71
2022/04/19 02:31:00;;;;;;;13.30;7.53;;;;;;;;;;5099893;28;20027;-72
2022/04/19 02:33:25;;;;;;;16.53;8.07;;;;;;;;;;5099005;28;20467;-72
2022/04/19 02:35:52;;;;;;;21.33;8.70;;;;;;;;;;5098639;28;20062;-72
2022/04/19 02:38:18;;;;;;;17.93;8.97;;;;;;;;;;5098621;28;20027;-72
2022/04/19 02:40:44;;;;;;;20.07;8.40;;;;;;;;;;5102224;28;20497;-72
2022/04/19 02:43:09;;;;;;;17.47;7.80;;;;;;;;;;5098930;28;20042;-71
2022/04/19 02:45:35;;;;;;;21.60;9.10;;;;;;;;;;5095213;28;20031;-71
2022/04/19 02:48:08;;;;;;;16.87;8.53;;;;;;;;;;5098684;28;20106;-71
2022/04/19 02:50:40;;;;;;;14.77;7.17;;;;;;;;;;5097143;28;20078;-71
2022/04/19 02:53:06;;;;;;;27.48;8.40;;;;;;;;;;5100163;28;20080;-71
2022/04/19 02:55:32;;;;;;;20.10;8.90;;;;;;;;;;5098020;28;20439;-71
2022/04/19 02:57:57;;;;;;;15.23;7.33;;;;;;;;;;5094924;28;20047;-71
2022/04/19 03:00:23;;;;;;;19.37;9.40;;;;;;;;;;5094614;28;20441;-71
2022/04/19 03:02:49;;;;;;;12.63;7.27;;;;;;;;;;5096359;28;20035;-72
2022/04/19 03:05:16;;;;;;;17.17;8.17;;;;;;;;;;5099683;28;20554;-71
2022/04/19 03:07:42;;;;;;;21.17;9.00;;;;;;;;;;5084405;28;20521;-71
2022/04/19 03:10:08;;;;;;;16.50;8.13;;;;;;;;;;5096902;28;20032;-71
2022/04/19 03:12:33;;;;;;;16.43;7.90;;;;;;;;;;5098724;28;20055;-71
2022/04/19 03:15:00;;;;;;;14.23;7.80;;;;;;;;;;5097122;28;20404;-72
2022/04/19 03:17:27;;;;;;;20.60;8.13;;;;;;;;;;5099036;28;20303;-71
2022/04/19 03:19:53;;;;;;;17.33;8.40;;;;;;;;;;5096503;28;20032;-72
2022/04/19 03:22:19;;;;;;;15.13;8.23;;;;;;;;;;5094766;28;20032;-72
2022/04/19 03:27:44;;;;;;;15.00;7.77;;;;;;;;;;5090115;28;20438;-71
2022/04/19 03:30:17;;;;;;;17.23;8.33;;;;;;;;;;5098846;28;20028;-71
2022/04/19 03:32:44;;;;;;;20.67;8.23;;;;;;;;;;5097906;28;20467;-71
2022/04/19 03:35:13;;;;;;;15.90;7.80;;;;;;;;;;5101147;28;20028;-71
2022/04/19 03:37:41;;;;;;;15.63;7.90;;;;;;;;;;5097261;28;20472;-72
2022/04/19 03:40:07;;;;;;;16.37;8.67;;;;;;;;;;5098041;28;20015;-72
2022/04/19 03:42:33;;;;;;;15.10;7.57;;;;;;;;;;5097047;28;20028;-72
2022/04/19 03:44:59;;;;;;;15.50;8.10;;;;;;;;;;5097912;28;20271;-72
2022/04/19 03:47:25;;;;;;;14.27;7.10;;;;;;;;;;5098500;28;20040;-72
2022/04/19 03:49:50;;;;;;;17.93;8.20;;;;;;;;;;5097132;28;20160;-71
2022/04/19 03:52:16;;;;;;;15.67;8.47;;;;;;;;;;5097916;28;20059;-71
2022/04/19 03:54:41;;;;;;;17.20;8.53;;;;;;;;;;5096946;28;20031;-71
2022/04/19 03:57:09;;;;;;;20.77;8.50;;;;;;;;;;5099370;28;20376;-71
2022/04/19 03:59:37;;;;;;;20.43;8.67;;;;;;;;;;5093991;28;20028;-73
2022/04/19 04:02:04;;;;;;;14.57;7.77;;;;;;;;;;5097509;28;20124;-71
2022/04/19 04:04:34;;;;;;;16.60;8.67;;;;;;;;;;5095196;28;20032;-72
2022/04/19 04:07:01;;;;;;;17.63;7.70;;;;;;;;;;5096876;28;20036;-72
2022/04/19 04:09:35;;;;;;;15.10;7.80;;;;;;;;;;5097387;28;20047;-72
2022/04/19 04:12:14;;;;;;;17.70;8.33;;;;;;;;;;5094203;28;20024;-72
2022/04/19 04:14:41;;;;;;;20.73;8.53;;;;;;;;;;5087140;28;20032;-72
2022/04/19 04:17:07;;;;;;;18.20;8.20;;;;;;;;;;5087409;28;20483;-73
2022/04/19 04:19:33;;;;;;;16.20;8.37;;;;;;;;;;5087034;28;20536;-72
2022/04/19 04:21:58;;;;;;;16.67;7.93;;;;;;;;;;5093718;28;20032;-72
2022/04/19 04:24:24;;;;;;;64.00;30.57;;;;;;;;;;5101810;28;20157;-71
2022/04/19 04:26:49;;;;;;;17.03;9.07;;;;;;;;;;5094456;28;20484;-72
2022/04/19 04:29:15;;;;;;;23.33;8.83;;;;;;;;;;5099907;28;20368;-71
2022/04/19 04:31:41;;;;;;;16.00;8.37;;;;;;;;;;5100193;28;20267;-71
2022/04/19 04:34:06;;;;;;;14.70;8.00;;;;;;;;;;5096379;28;20039;-71
2022/04/19 04:36:32;;;;;;;17.50;8.73;;;;;;;;;;5095933;28;20039;-71
2022/04/19 04:38:58;;;;;;;18.30;8.50;;;;;;;;;;5104668;28;20042;-72
2022/04/19 04:41:23;;;;;;;12.60;7.47;;;;;;;;;;5098405;28;20475;-71
2022/04/19 04:43:49;;;;;;;48.13;20.60;;;;;;;;;;5103311;28;20055;-71
2022/04/19 04:51:42;;;;;;;15.37;7.60;;;;;;;;;;5102360;28;20335;-71
2022/04/19 04:54:08;;;;;;;17.40;7.63;;;;;;;;;;5100713;28;20258;-70
2022/04/19 04:56:34;;;;;;;19.20;8.97;;;;;;;;;;5100347;28;20050;-70
2022/04/19 04:59:00;;;;;;;14.27;7.17;;;;;;;;;;5101917;28;20023;-71
2022/04/19 05:01:25;;;;;;;19.47;8.90;;;;;;;;;;5100657;28;20028;-71
2022/04/19 05:03:51;;;;;;;18.67;7.67;;;;;;;;;;5100309;28;20069;-71
2022/04/19 05:06:17;;;;;;;14.60;7.17;;;;;;;;;;5100843;28;20070;-71
2022/04/19 05:08:42;;;;;;;29.73;8.63;;;;;;;;;;5099528;28;20051;-72
2022/04/19 05:11:08;;;;;;;12.27;6.93;;;;;;;;;;5102973;28;20272;-72
2022/04/19 05:13:34;;;;;;;15.80;7.90;;;;;;;;;;5100985;28;20028;-71
2022/04/19 05:16:01;;;;;;;18.93;8.00;;;;;;;;;;5103412;28;20431;-72
2022/04/19 05:18:26;;;;;;;16.10;7.63;;;;;;;;;;5082315;28;20549;-71
2022/04/19 05:20:53;;;;;;;16.40;7.60;;;;;;;;;;5096874;28;20028;-71
2022/04/19 05:23:20;;;;;;;18.13;8.43;;;;;;;;;;5083565;28;20355;-71
2022/04/19 05:25:46;;;;;;;15.20;7.70;;;;;;;;;;5095926;28;20028;-71
2022/04/19 05:28:12;;;;;;;14.23;7.57;;;;;;;;;;5103080;28;20057;-71
2022/04/19 05:30:38;;;;;;;12.90;7.30;;;;;;;;;;5098273;28;20036;-72
2022/04/19 05:33:04;;;;;;;13.60;7.07;;;;;;;;;;5100399;28;20502;-72
2022/04/19 05:35:29;;;;;;;14.67;8.17;;;;;;;;;;5096266;28;20031;-72
2022/04/19 05:37:55;;;;;;;14.27;8.30;;;;;;;;;;5098257;28;20035;-72
2022/04/19 05:40:22;;;;;;;15.17;8.33;;;;;;;;;;5100130;28;20028;-72
2022/04/19 05:42:47;;;;;;;14.50;7.83;;;;;;;;;;5079947;28;20097;-71
2022/04/19 05:45:13;;;;;;;16.53;7.67;;;;;;;;;;5096887;28;20062;-71
2022/04/19 05:47:43;;;;;;;12.87;6.90;;;;;;;;;;5092574;28;20071;-72
2022/04/19 05:50:09;;;;;;;14.57;7.17;;;;;;;;;;5101788;28;20035;-71
2022/04/19 05:52:36;;;;;;;16.63;7.83;;;;;;;;;;5098316;28;20027;-71
2022/04/19 05:55:03;;;;;;;12.80;7.00;;;;;;;;;;5101637;28;20038;-72
2022/04/19 05:57:29;;;;;;;15.33;7.50;;;;;;;;;;5101586;28;20032;-72
2022/04/19 05:59:54;;;;;;;14.57;7.93;;;;;;;;;;5097091;28;20050;-72
2022/04/19 06:05:04;;;;;;;13.57;6.63;;;;;;;;;;5095422;28;20043;-72
2022/04/19 06:07:30;;;;;;;15.33;7.13;;;;;;;;;;5101519;28;20044;-72
2022/04/19 06:09:59;;;;;;;23.83;8.17;;;;;;;;;;5090538;28;20031;-72
2022/04/19 06:12:25;;;;;;;16.40;7.93;;;;;;;;;;5091728;28;20038;-72
2022/04/19 06:14:51;;;;;;;11.67;6.73;;;;;;;;;;5092541;28;20032;-72
2022/04/19 06:17:18;;;;;;;18.80;8.50;;;;;;;;;;5092969;28;20127;-72
2022/04/19 06:19:44;;;;;;;18.20;8.40;;;;;;;;;;5104782;28;20035;-72
2022/04/19 06:22:13;;;;;;;14.07;8.27;;;;;;;;;;5090381;28;20471;-71
2022/04/19 06:24:39;;;;;;;14.10;7.20;;;;;;;;;;5086457;28;20035;-72
2022/04/19 06:27:05;;;;;;;19.27;7.70;;;;;;;;;;5094877;28;20042;-70
2022/04/19 06:29:32;;;;;;;12.43;7.00;;;;;;;;;;5103229;28;20063;-73
2022/04/19 06:31:59;;;;;;;12.80;7.40;;;;;;;;;;5095895;28;20024;-73
2022/04/19 06:34:25;;;;;;;15.93;8.13;;;;;;;;;;5073811;28;20142;-73
2022/04/19 06:36:51;;;;;;;14.33;7.40;;;;;;;;;;5094184;28;20031;-73
2022/04/19 06:39:17;;;;;;;15.33;7.03;;;;;;;;;;5090418;28;20393;-73
2022/04/19 06:41:43;;;;;;;15.37;7.53;;;;;;;;;;5095908;28;20061;-75
2022/04/19 06:44:16;;;;;;;13.87;7.50;;;;;;;;;;5090321;28;20059;-74
2022/04/19 06:46:47;;;;;;;12.27;7.27;;;;;;;;;;5083946;28;20486;-73
2022/04/19 06:49:14;;;;;;;14.63;8.03;;;;;;;;;;5091595;28;20487;-73
2022/04/19 06:51:40;;;;;;;15.17;6.77;;;;;;;;;;5084330;28;20579;-73
2022/04/19 06:54:07;;;;;;;14.97;6.97;;;;;;;;;;5078269;28;20038;-72
2022/04/19 06:56:34;;;;;;;17.30;7.57;;;;;;;;;;5102968;28;20516;-73
2022/04/19 06:59:07;;;;;;;16.83;8.30;;;;;;;;;;5088211;28;20038;-73
2022/04/19 07:01:38;;;;;;;14.53;8.20;;;;;;;;;;5096876;28;20036;-73
2022/04/19 07:04:04;;;;;;;14.03;7.87;;;;;;;;;;5052904;28;20792;-74
2022/04/19 07:06:37;;;;;;;24.20;8.27;;;;;;;;;;5071790;28;20036;-72
2022/04/19 07:09:20;;;;;;;13.20;6.83;;;;;;;;;;5098362;28;20172;-74
2022/04/19 07:11:49;;;;;;;16.73;7.73;;;;;;;;;;5086287;28;20138;-74
2022/04/19 07:14:17;;;;;;;15.43;5.97;;;;;;;;;;5085515;28;20125;-74
2022/04/19 07:16:43;;;;;;;6.40;4.43;;;;;;;;;;5084766;28;20040;-72
2022/04/19 07:19:10;;;;;;;8.30;4.40;;;;;;;;;;5094330;28;20028;-74
2022/04/19 07:27:08;;;;;;;8.50;4.30;;;;;;;;;;5098458;28;20434;-74
2022/04/19 07:29:35;;;;;;;5.43;3.75;;;;;;;;;;5091305;28;20227;-73
2022/04/19 07:32:03;;;;;;;6.95;3.70;;;;;;;;;;5095878;28;20024;-72
2022/04/19 07:34:29;;;;;;;10.80;4.23;;;;;;;;;;5090333;28;20243;-73
2022/04/19 07:36:57;;;;;;;9.60;4.07;;;;;;;;;;5061410;28;20035;-73
2022/04/19 07:39:23;;;;;;;6.50;4.35;;;;;;;;;;5085315;28;20130;-74
2022/04/19 07:41:53;;;;;;;8.77;4.40;;;;;;;;;;5089914;28;20046;-74
2022/04/19 07:44:20;;;;;;;5.07;3.60;;;;;;;;;;5077379;28;20056;-75
2022/04/19 07:46:46;;;;;;;7.67;4.40;;;;;;;;;;5091823;28;20286;-75
2022/04/19 07:49:15;;;;;;;8.07;4.20;;;;;;;;;;5090065;28;20043;-73
2022/04/19 07:51:40;;;;;;;10.57;4.57;;;;;;;;;;5088594;28;20036;-74
2022/04/19 07:54:06;;;;;;;7.05;5.32;;;;;;;;;;5093515;28;20030;-73
2022/04/19 07:56:32;;;;;;;9.75;4.55;;;;;;;;;;5095776;28;20473;-75
2022/04/19 07:59:05;;;;;;;7.13;4.75;;;;;;;;;;5089366;28;20085;-73
2022/04/19 08:01:34;;;;;;;9.63;4.32;;;;;;;;;;5085264;28;20032;-74
2022/04/19 08:04:09;;;;;;;6.05;3.88;;;;;;;;;;5087304;28;20028;-74
2022/04/19 08:06:36;;;;;;;11.10;4.65;;;;;;;;;;5085400;28;20134;-72
2022/04/19 08:09:06;;;;;;;6.40;4.20;;;;;;;;;;5085451;28;20074;-73
2022/04/19 08:11:33;;;;;;;6.03;4.45;;;;;;;;;;5078690;28;20050;-75
2022/04/19 08:13:59;;;;;;;6.78;4.32;;;;;;;;;;5114803;27;20043;-75
2022/04/19 08:16:25;;;;;;;13.38;8.02;;;;;;;;;;5097365;28;20558;-73
2022/04/19 08:18:53;;;;;;;7.78;4.78;;;;;;;;;;5088858;28;20032;-75
2022/04/19 08:21:20;;;;;;;5.45;3.83;;;;;;;;;;5079385;28;20030;-74
2022/04/19 08:23:46;;;;;;;8.70;4.38;;;;;;;;;;5093502;28;20067;-75
2022/04/19 08:26:13;;;;;;;7.20;4.63;;;;;;;;;;5089351;28;20101;-75
2022/04/19 08:28:39;;;;;;;8.23;4.53;;;;;;;;;;5095436;28;20050;-76
2022/04/19 08:31:08;;;;;;;8.25;4.25;;;;;;;;;;5089905;28;20363;-75
2022/04/19 08:33:37;;;;;;;5.80;4.07;;;;;;;;;;5089575;28;20059;-74
2022/04/19 08:36:03;;;;;;;5.65;3.72;;;;;;;;;;5085188;28;20111;-75
2022/04/19 08:38:30;;;;;;;12.82;6.70;;;;;;;;;;5095789;28;20490;-77
2022/04/19 08:40:57;;;;;;;9.27;4.30;;;;;;;;;;5094769;28;20027;-73
2022/04/19 08:43:29;;;;;;;8.73;4.10;;;;;;;;;;5075049;28;20135;-74
2022/04/19 08:45:55;;;;;;;9.07;3.95;;;;;;;;;;5079423;28;20043;-73
2022/04/19 08:48:35;;;;;;;5.88;3.53;;;;;;;;;;5081624;28;20036;-76
2022/04/19 08:51:02;;;;;;;5.50;3.60;;;;;;;;;;5083106;28;20355;-75
2022/04/19 08:59:05;;;;;;;49.55;10.15;;;;;;;;;;5074982;28;20055;-74
2022/04/19 09:01:32;;;;;;;5.90;4.07;;;;;;;;;;5081837;28;20036;-71
2022/04/19 09:04:04;;;;;;;6.63;3.83;;;;;;;;;;5079424;28;20040;-74
2022/04/19 09:06:59;;;;;;;7.53;4.57;;;;;;;;;;5076181;28;20031;-74
2022/04/19 09:09:37;;;;;;;5.13;3.47;;;;;;;;;;5085352;28;20059;-76
2022/04/19 09:12:12;;;;;;;8.35;3.67;;;;;;;;;;5080190;28;20028;-75
2022/04/19 09:15:03;;;;;;;5.85;3.80;;;;;;;;;;5082333;28;20035;-75
2022/04/19 09:17:48;;;;;;;6.55;4.05;;;;;;;;;;5085220;28;20129;-74
2022/04/19 09:20:19;;;;;;;7.05;4.38;;;;;;;;;;5086545;28;20131;-74
2022/04/19 09:23:10;;;;;;;8.50;4.70;;;;;;;;;;5091015;28;20042;-75
2022/04/19 09:25:38;;;;;;;15.32;6.60;;;;;;;;;;5087163;28;20275;-75
2022/04/19 09:28:19;;;;;;;7.68;4.55;;;;;;;;;;5088097;28;20036;-74
2022/04/19 09:30:56;;;;;;;8.67;4.97;;;;;;;;;;5069906;28;20118;-74
2022/04/19 09:33:24;;;;;;;9.70;4.72;;;;;;;;;;5082124;28;20032;-73
2022/04/19 09:35:55;;;;;;;7.63;4.20;;;;;;;;;;5101823;27;20173;-75
2022/04/19 09:38:43;;;;;;;9.70;5.20;;;;;;;;;;5090412;28;20548;-76
2022/04/19 09:41:16;;;;;;;7.18;4.47;;;;;;;;;;5093886;28;20039;-75
2022/04/19 09:44:14;;;;;;;11.77;5.20;;;;;;;;;;5081924;28;20040;-73
2022/04/19 09:47:00;;;;;;;8.10;5.00;;;;;;;;;;5079483;28;20078;-73
2022/04/19 09:49:55;;;;;;;9.55;4.55;;;;;;;;;;5084115;28;20141;-74
2022/04/19 09:52:33;;;;;;;7.88;5.05;;;;;;;;;;5063586;28;20051;-74
2022/04/19 09:55:10;;;;;;;8.35;5.10;;;;;;;;;;5080577;28;20088;-75
2022/04/19 09:57:41;;;;;;;17.33;6.35;;;;;;;;;;5052259;28;20150;-74
2022/04/19 10:00:12;;;;;;;8.77;5.72;;;;;;;;;;5078330;28;20381;-74
2022/04/19 10:08:14;;;;;;;7.20;5.55;;;;;;;;;;5069029;28;20055;-74
2022/04/19 10:10:42;;;;;;;10.02;5.65;;;;;;;;;;5072576;28;20047;-76
2022/04/19 10:13:10;;;;;;;11.13;6.82;;;;;;;;;;5090527;28;20032;-72
2022/04/19 10:15:40;;;;;;;11.55;7.13;;;;;;;;;;5074918;28;20169;-74
2022/04/19 10:18:10;;;;;;;10.00;6.55;;;;;;;;;;5084486;28;20476;-72
2022/04/19 10:20:45;;;;;;;8.40;6.50;;;;;;;;;;5084999;28;20758;-76
2022/04/19 10:23:15;;;;;;;15.05;6.05;;;;;;;;;;5093870;28;20023;-74
2022/04/19 10:25:49;;;;;;;10.60;6.10;;;;;;;;;;5084802;28;20036;-74
2022/04/19 10:28:26;;;;;;;13.45;6.88;;;;;;;;;;5063484;28;20028;-74
2022/04/19 10:30:55;;;;;;;11.15;6.70;;;;;;;;;;5082965;28;20035;-73
2022/04/19 10:34:03;;;;;;;10.60;6.93;;;;;;;;;;5065815;28;20527;-75
2022/04/19 10:36:42;;;;;;;13.27;6.93;;;;;;;;;;5085590;28;20030;-75
2022/04/19 10:39:15;;;;;;;12.02;6.80;;;;;;;;;;5086195;28;20128;-73
2022/04/19 10:42:05;;;;;;;12.10;6.88;;;;;;;;;;5078620;28;20016;-73
2022/04/19 10:44:48;;;;;;;9.73;6.63;;;;;;;;;;5087306;28;20032;-74
2022/04/19 10:47:23;;;;;;;11.80;7.32;;;;;;;;;;5076970;28;20031;-75
2022/04/19 10:49:52;;;;;;;12.05;7.30;;;;;;;;;;5084131;28;20036;-73
2022/04/19 10:52:40;;;;;;;13.35;7.95;;;;;;;;;;5084768;28;20058;-73
2022/04/19 10:55:19;;;;;;;12.23;7.47;;;;;;;;;;5080870;28;20078;-74
2022/04/19 11:00:42;;;;;;;11.77;7.00;;;;;;;;;;5080695;28;20034;-74
2022/04/19 11:03:18;;;;;;;10.73;6.75;;;;;;;;;;5078950;28;20020;-76
2022/04/19 11:05:50;;;;;;;8.77;6.13;;;;;;;;;;5075387;28;20047;-74
2022/04/19 11:08:26;;;;;;;11.25;6.38;;;;;;;;;;5091629;28;20284;-74
2022/04/19 11:11:20;;;;;;;10.75;6.28;;;;;;;;;;5076682;28;20112;-74
2022/04/19 11:14:17;;;;;;;9.15;5.55;;;;;;;;;;5063047;28;20309;-75
2022/04/19 11:16:47;;;;;;;12.15;5.68;;;;;;;;;;5079618;28;20224;-77
2022/04/19 11:19:20;;;;;;;8.37;4.77;;;;;;;;;;5080821;28;20058;-76
2022/04/19 11:22:01;;;;;;;13.53;4.50;;;;;;;;;;5081531;28;20035;-73
2022/04/19 11:24:59;;;;;;;11.47;4.77;;;;;;;;;;5091431;28;20291;-75
2022/04/19 11:27:53;;;;;;;10.57;5.13;;;;;;;;;;5078192;28;20042;-75
2022/04/19 11:30:23;;;;;;;8.30;4.32;;;;;;;;;;5079062;28;20031;-75
2022/04/19 11:32:55;;;;;;;15.85;5.57;;;;;;;;;;5078287;28;20112;-77
2022/04/19 11:35:22;;;;;;;8.88;5.68;;;;;;;;;;5076264;28;20278;-75
2022/04/19 11:37:48;;;;;;;9.48;5.70;;;;;;;;;;5077257;28;20055;-73
2022/04/19 11:48:50;;;;;;;7.85;4.97;;;;;;;;;;5078736;28;20184;-72
2022/04/19 11:51:20;;;;;;;8.98;5.13;;;;;;;;;;5079052;28;20020;-73
2022/04/19 11:53:47;;;;;;;16.20;6.05;;;;;;;;;;5080443;28;20024;-73
2022/04/19 11:56:13;;;;;;;8.23;4.53;;;;;;;;;;5073500;28;20411;-73
2022/04/19 11:58:46;;;;;;;11.10;5.72;;;;;;;;;;5080481;28;20619;-73
2022/04/19 12:01:28;;;;;;;7.63;4.50;;;;;;;;;;5078817;28;20028;-73
2022/04/19 12:04:09;;;;;;;14.70;4.95;;;;;;;;;;5076649;28;20070;-75
2022/04/19 12:06:36;;;;;;;9.48;5.85;;;;;;;;;;5074173;28;20165;-73
2022/04/19 12:09:03;;;;;;;11.63;5.75;;;;;;;;;;5075176;28;20470;-73
2022/04/19 12:11:31;;;;;;;6.47;4.00;;;;;;;;;;5081441;28;20028;-72
2022/04/19 12:14:03;;;;;;;5.87;4.50;;;;;;;;;;5078808;28;20334;-73
2022/04/19 12:16:38;;;;;;;8.15;4.47;;;;;;;;;;5061347;28;20044;-73
2022/04/19 12:19:08;;;;;;;4.67;3.40;;;;;;;;;;5077191;28;20036;-73
2022/04/19 12:21:38;;;;;;;7.47;3.87;;;;;;;;;;5075460;28;20536;-73
2022/04/19 12:24:28;;;;;;;7.40;3.13;;;;;;;;;;5082445;28;20850;-73
2022/04/19 12:27:10;;;;;;;4.13;3.40;;;;;;;;;;5075064;28;20036;-72
2022/04/19 12:29:55;;;;;;;5.70;3.22;;;;;;;;;;5074578;28;20023;-74
2022/04/19 12:32:22;;;;;;;8.60;3.57;;;;;;;;;;5061798;28;20404;-73
2022/04/19 12:34:48;;;;;;;5.47;3.47;;;;;;;;;;5076680;28;20115;-72
2022/04/19 12:37:18;;;;;;;8.07;3.33;;;;;;;;;;5075597;28;20032;-72
2022/04/19 12:40:04;;;;;;;3.33;2.85;;;;;;;;;;5059232;28;20047;-73
2022/04/19 12:42:50;;;;;;;5.10;2.70;;;;;;;;;;5078966;28;20344;-73
2022/04/19 12:45:17;;;;;;;6.18;2.78;;;;;;;;;;5071440;28;20036;-72
2022/04/19 12:47:50;;;;;;;2.63;2.42;;;;;;;;;;5076772;28;20046;-72
2022/04/19 12:50:19;;;;;;;5.85;3.22;;;;;;;;;;5079815;28;20027;-72
2022/04/19 12:52:46;;;;;;;4.53;3.22;;;;;;;;;;5079442;28;20348;-72
2022/04/19 12:55:14;;;;;;;6.50;3.15;;;;;;;;;;5078066;28;20145;-72
2022/04/19 12:57:45;;;;;;;4.55;3.47;;;;;;;;;;5066749;28;20044;-72
2022/04/19 13:00:13;;;;;;;8.53;4.17;;;;;;;;;;5081876;28;20531;-73
2022/04/19 13:02:42;;;;;;;8.75;3.40;;;;;;;;;;5097414;27;20384;-73
2022/04/19 13:05:08;;;;;;;3.47;2.97;;;;;;;;;;5068635;28;20044;-73
2022/04/19 13:13:07;;;;;;;6.78;3.33;;;;;;;;;;5083864;28;20415;-73
2022/04/19 13:15:35;;;;;;;7.88;5.70;;;;;;;;;;5080653;28;20540;-72
2022/04/19 13:18:04;;;;;;;4.00;3.58;;;;;;;;;;5085987;28;20056;-72
2022/04/19 13:20:33;;;;;;;5.28;3.47;;;;;;;;;;5082650;28;20031;-73
2022/04/19 13:23:01;;;;;;;4.28;3.17;;;;;;;;;;5084315;28;20028;-73
2022/04/19 13:25:27;;;;;;;6.00;3.30;;;;;;;;;;5080334;28;20433;-73
2022/04/19 13:28:01;;;;;;;6.30;3.90;;;;;;;;;;5081624;28;20036;-74
2022/04/19 13:30:28;;;;;;;4.20;3.10;;;;;;;;;;5081295;28;20119;-73
2022/04/19 13:32:56;;;;;;;7.82;3.65;;;;;;;;;;5081039;28;20070;-73
2022/04/19 13:35:30;;;;;;;4.55;3.95;;;;;;;;;;5077304;28;20487;-72
2022/04/19 13:40:41;;;;;;;6.35;3.05;;;;;;;;;;5085781;28;20085;-73
2022/04/19 13:43:07;;;;;;;4.85;3.03;;;;;;;;;;5081667;28;20043;-72
2022/04/19 13:45:35;;;;;;;3.88;3.05;;;;;;;;;;5075303;28;20050;-72
2022/04/19 13:48:04;;;;;;;2.92;2.63;;;;;;;;;;5081813;28;20032;-72
2022/04/19 13:50:31;;;;;;;6.40;2.85;;;;;;;;;;5080758;28;20128;-72
2022/04/19 13:52:57;;;;;;;4.65;2.60;;;;;;;;;;5081609;28;20543;-72
2022/04/19 13:55:23;;;;;;;10.27;5.95;;;;;;;;;;5084188;28;20024;-75
2022/04/19 13:57:54;;;;;;;5.72;2.65;;;;;;;;;;5080582;28;20034;-72
2022/04/19 14:00:23;;;;;;;5.32;2.30;;;;;;;;;;5080348;28;20410;-74
2022/04/19 14:02:50;;;;;;;2.55;2.10;;;;;;;;;;5085434;28;20032;-73
2022/04/19 14:05:16;;;;;;;7.25;2.90;;;;;;;;;;5084126;28;20046;-72
2022/04/19 14:07:42;;;;;;;4.30;2.80;;;;;;;;;;5080726;28;20051;-72
2022/04/19 14:10:10;;;;;;;5.20;2.83;;;;;;;;;;5082084;28;20072;-72
2022/04/19 14:12:37;;;;;;;3.83;2.35;;;;;;;;;;5085173;28;20023;-72
2022/04/19 14:15:07;;;;;;;5.35;2.63;;;;;;;;;;5083020;28;20492;-72
2022/04/19 14:17:33;;;;;;;4.05;3.63;;;;;;;;;;5076210;28;20040;-72
2022/04/19 14:19:59;;;;;;;4.10;2.78;;;;;;;;;;5078087;28;20032;-73
2022/04/19 14:22:25;;;;;;;4.53;2.88;;;;;;;;;;5082428;28;20039;-73
2022/04/19 14:24:54;;;;;;;5.88;2.80;;;;;;;;;;5080962;28;20437;-72
2022/04/19 14:27:20;;;;;;;5.07;2.85;;;;;;;;;;5080164;28;20448;-73
2022/04/19 14:35:34;;;;;;;3.20;2.20;;;;;;;;;;5003507;28;20235;-73
2022/04/19 14:38:00;;;;;;;3.50;2.03;;;;;;;;;;5043984;28;20713;-73
2022/04/19 14:40:27;;;;;;;3.73;2.60;;;;;;;;;;5084193;28;20024;-73
2022/04/19 14:42:53;;;;;;;6.50;2.90;;;;;;;;;;5078148;28;20822;-73
2022/04/19 14:45:20;;;;;;;6.07;2.53;;;;;;;;;;5077664;28;20119;-73
2022/04/19 14:47:47;;;;;;;4.57;3.67;;;;;;;;;;5078712;28;20034;-73
2022/04/19 14:50:14;;;;;;;3.73;3.03;;;;;;;;;;5080026;28;20028;-72
2022/04/19 14:52:40;;;;;;;3.97;2.50;;;;;;;;;;5081662;28;20039;-72
2022/04/19 14:55:10;;;;;;;4.93;1.73;;;;;;;;;;5078856;28;20143;-73
2022/04/19 14:57:38;;;;;;;8.23;2.50;;;;;;;;;;5080325;28;20142;-73
2022/04/19 15:00:08;;;;;;;3.73;2.10;;;;;;;;;;5082244;28;20036;-74
2022/04/19 15:02:35;;;;;;;2.72;2.00;;;;;;;;;;5081408;28;20027;-72
2022/04/19 15:05:04;;;;;;;12.88;5.28;;;;;;;;;;5081523;28;20040;-73
2022/04/19 15:07:38;;;;;;;2.25;2.05;;;;;;;;;;5077027;28;20359;-74
2022/04/19 15:10:06;;;;;;;5.20;3.35;;;;;;;;;;5081161;28;20372;-72
2022/04/19 15:12:32;;;;;;;2.67;2.17;;;;;;;;;;5081861;28;20089;-72
2022/04/19 15:14:58;;;;;;;3.80;2.10;;;;;;;;;;5081339;28;20027;-74
2022/04/19 15:17:24;;;;;;;7.78;3.05;;;;;;;;;;5082522;28;20036;-73
2022/04/19 15:19:50;;;;;;;3.83;2.13;;;;;;;;;;5081456;28;20048;-72
2022/04/19 15:22:18;;;;;;;4.20;2.45;;;;;;;;;;5079110;28;20028;-73
2022/04/19 15:24:44;;;;;;;4.00;2.75;;;;;;;;;;5081273;28;20040;-73
2022/04/19 15:27:09;;;;;;;13.48;9.60;;;;;;;;;;5077089;28;20487;-73
2022/04/19 15:29:35;;;;;;;4.35;3.95;;;;;;;;;;5077770;28;20116;-71
2022/04/19 15:32:04;;;;;;;5.43;2.75;;;;;;;;;;5082496;28;20032;-74
2022/04/19 15:34:30;;;;;;;2.88;2.35;;;;;;;;;;5077453;28;20563;-72
2022/04/19 15:36:58;;;;;;;6.68;2.22;;;;;;;;;;5078003;28;20111;-72
2022/04/19 15:39:26;;;;;;;4.03;2.67;;;;;;;;;;5082387;28;20154;-74
2022/04/19 15:41:51;;;;;;;3.58;2.42;;;;;;;;;;5082182;28;20032;-74
2022/04/19 15:44:17;;;;;;;2.33;1.98;;;;;;;;;;5083068;28;20105;-74
2022/04/19 15:46:44;;;;;;;1.95;1.83;;;;;;;;;;5077413;28;20105;-76